sensor_id;sensor_type;location;lat;lon;timestamp;temperature;humidity
19968;DHT22;10145;49.152;9.282;2023-11-19T00:00:26;7.30;99.90
19968;DHT22;10145;49.152;9.282;2023-11-19T00:02:51;7.30;99.90
19968;DHT22;10145;49.152;9.282;2023-11-19T00:05:17;7.30;99.90
19968;DHT22;10145;49.152;9.282;2023-11-19T00:07:42;7.40;99.90
19968;DHT22;10145;49.152;9.282;2023-11-19T00:10:16;7.40;99.90
19968;DHT22;10145;49.152;9.282;2023-11-19T00:12:45;7.40;99.90
19968;DHT22;10145;49.152;9.282;2023-11-19T00:15:12;7.40;99.90
19968;DHT22;10145;49.152;9.282;2023-11-19T00:17:38;7.40;99.90
19968;DHT22;10145;49.152;9.282;2023-11-19T00:20:13;7.40;99.90
19968;DHT22;10145;49.152;9.282;2023-11-19T00:22:39;7.50;99.90
19968;DHT22;10145;49.152;9.282;2023-11-19T00:25:05;7.50;99.90
19968;DHT22;10145;49.152;9.282;2023-11-19T00:27:31;7.50;99.90
19968;DHT22;10145;49.152;9.282;2023-11-19T00:29:57;7.50;99.90
19968;DHT22;10145;49.152;9.282;2023-11-19T00:32:23;7.50;99.90
19968;DHT22;10145;49.152;9.282;2023-11-19T00:34:48;7.50;99.90
19968;DHT22;10145;49.152;9.282;2023-11-19T00:37:14;7.60;99.90
19968;DHT22;10145;49.152;9.282;2023-11-19T00:39:41;7.60;99.90
19968;DHT22;10145;49.152;9.282;2023-11-19T00:42:06;7.60;99.90
19968;DHT22;10145;49.152;9.282;2023-11-19T00:44:32;7.70;99.90
19968;DHT22;10145;49.152;9.282;2023-11-19T00:46:57;7.70;99.90
19968;DHT22;10145;49.152;9.282;2023-11-19T00:49:24;7.70;99.90
19968;DHT22;10145;49.152;9.282;2023-11-19T00:51:50;7.70;99.90
19968;DHT22;10145;49.152;9.282;2023-11-19T00:54:16;7.70;99.90
19968;DHT22;10145;49.152;9.282;2023-11-19T00:56:41;7.70;99.90
19968;DHT22;10145;49.152;9.282;2023-11-19T00:59:07;7.70;99.90
19968;DHT22;10145;49.152;9.282;2023-11-19T01:01:33;7.70;99.90
19968;DHT22;10145;49.152;9.282;2023-11-19T01:03:59;7.70;99.90
19968;DHT22;10145;49.152;9.282;2023-11-19T01:06:31;7.80;99.90
19968;DHT22;10145;49.152;9.282;2023-11-19T01:08:57;7.80;99.90
19968;DHT22;10145;49.152;9.282;2023-11-19T01:11:25;7.80;99.90
19968;DHT22;10145;49.152;9.282;2023-11-19T01:13:52;7.80;99.90
19968;DHT22;10145;49.152;9.282;2023-11-19T01:16:18;7.80;99.90
19968;DHT22;10145;49.152;9.282;2023-11-19T01:18:46;7.80;99.90
19968;DHT22;10145;49.152;9.282;2023-11-19T01:21:12;7.80;99.90
19968;DHT22;10145;49.152;9.282;2023-11-19T01:23:40;7.90;99.90
19968;DHT22;10145;49.152;9.282;2023-11-19T01:26:05;7.90;99.90
19968;DHT22;10145;49.152;9.282;2023-11-19T01:28:31;7.90;99.90
19968;DHT22;10145;49.152;9.282;2023-11-19T01:30:57;7.90;99.90
19968;DHT22;10145;49.152;9.282;2023-11-19T01:33:22;8.00;99.90
19968;DHT22;10145;49.152;9.282;2023-11-19T01:35:48;8.00;99.90
19968;DHT22;10145;49.152;9.282;2023-11-19T01:38:13;8.00;99.90
19968;DHT22;10145;49.152;9.282;2023-11-19T01:40:40;7.90;99.90
19968;DHT22;10145;49.152;9.282;2023-11-19T01:43:05;7.90;99.90
19968;DHT22;10145;49.152;9.282;2023-11-19T01:45:31;7.80;99.90
19968;DHT22;10145;49.152;9.282;2023-11-19T01:47:59;7.80;99.90
19968;DHT22;10145;49.152;9.282;2023-11-19T01:50:26;7.80;99.90
19968;DHT22;10145;49.152;9.282;2023-11-19T01:52:55;7.80;99.90
19968;DHT22;10145;49.152;9.282;2023-11-19T01:55:23;7.80;99.90
19968;DHT22;10145;49.152;9.282;2023-11-19T01:57:49;7.80;99.90
19968;DHT22;10145;49.152;9.282;2023-11-19T02:00:16;7.90;99.90
19968;DHT22;10145;49.152;9.282;2023-11-19T02:02:48;7.90;99.90
19968;DHT22;10145;49.152;9.282;2023-11-19T02:05:14;7.90;99.90
19968;DHT22;10145;49.152;9.282;2023-11-19T02:07:40;7.90;99.90
19968;DHT22;10145;49.152;9.282;2023-11-19T02:10:06;7.90;99.90
19968;DHT22;10145;49.152;9.282;2023-11-19T02:12:32;7.90;99.90
19968;DHT22;10145;49.152;9.282;2023-11-19T02:14:59;8.00;99.90
19968;DHT22;10145;49.152;9.282;2023-11-19T02:17:29;8.00;99.90
19968;DHT22;10145;49.152;9.282;2023-11-19T02:19:57;8.00;99.90
19968;DHT22;10145;49.152;9.282;2023-11-19T02:22:23;8.00;99.90
19968;DHT22;10145;49.152;9.282;2023-11-19T02:24:54;8.00;99.90
19968;DHT22;10145;49.152;9.282;2023-11-19T02:29:55;8.00;99.90
19968;DHT22;10145;49.152;9.282;2023-11-19T02:32:20;7.90;99.90
19968;DHT22;10145;49.152;9.282;2023-11-19T02:34:46;7.90;99.90
19968;DHT22;10145;49.152;9.282;2023-11-19T02:37:11;7.80;99.90
19968;DHT22;10145;49.152;9.282;2023-11-19T02:39:37;7.80;99.90
19968;DHT22;10145;49.152;9.282;2023-11-19T02:42:03;7.90;99.90
19968;DHT22;10145;49.152;9.282;2023-11-19T02:44:28;7.90;99.90
19968;DHT22;10145;49.152;9.282;2023-11-19T02:46:56;7.90;99.90
19968;DHT22;10145;49.152;9.282;2023-11-19T02:49:24;7.90;99.90
19968;DHT22;10145;49.152;9.282;2023-11-19T02:51:50;7.90;99.90
19968;DHT22;10145;49.152;9.282;2023-11-19T02:54:15;7.90;99.90
19968;DHT22;10145;49.152;9.282;2023-11-19T02:56:44;7.90;99.90
19968;DHT22;10145;49.152;9.282;2023-11-19T02:59:13;8.00;99.90
19968;DHT22;10145;49.152;9.282;2023-11-19T03:01:52;8.00;99.90
19968;DHT22;10145;49.152;9.282;2023-11-19T03:04:18;7.90;99.90
19968;DHT22;10145;49.152;9.282;2023-11-19T03:06:46;7.90;99.90
19968;DHT22;10145;49.152;9.282;2023-11-19T03:09:11;8.00;99.90
19968;DHT22;10145;49.152;9.282;2023-11-19T03:11:37;8.00;99.90
19968;DHT22;10145;49.152;9.282;2023-11-19T03:14:03;8.00;99.90
19968;DHT22;10145;49.152;9.282;2023-11-19T03:16:29;8.00;99.90
19968;DHT22;10145;49.152;9.282;2023-11-19T03:18:54;8.00;99.90
19968;DHT22;10145;49.152;9.282;2023-11-19T03:21:29;8.00;99.90
19968;DHT22;10145;49.152;9.282;2023-11-19T03:23:56;8.10;99.90
19968;DHT22;10145;49.152;9.282;2023-11-19T03:26:26;8.10;99.90
19968;DHT22;10145;49.152;9.282;2023-11-19T03:28:52;8.20;99.90
19968;DHT22;10145;49.152;9.282;2023-11-19T03:31:17;8.20;99.90
19968;DHT22;10145;49.152;9.282;2023-11-19T03:33:43;8.20;99.90
19968;DHT22;10145;49.152;9.282;2023-11-19T03:36:08;8.30;99.90
19968;DHT22;10145;49.152;9.282;2023-11-19T03:38:34;8.30;99.90
19968;DHT22;10145;49.152;9.282;2023-11-19T03:41:00;8.40;99.90
19968;DHT22;10145;49.152;9.282;2023-11-19T03:43:26;8.40;99.90
19968;DHT22;10145;49.152;9.282;2023-11-19T03:45:52;8.50;99.90
19968;DHT22;10145;49.152;9.282;2023-11-19T03:48:18;8.60;99.90
19968;DHT22;10145;49.152;9.282;2023-11-19T03:50:44;8.60;99.90
19968;DHT22;10145;49.152;9.282;2023-11-19T03:53:11;8.70;99.90
19968;DHT22;10145;49.152;9.282;2023-11-19T03:55:36;8.80;99.90
19968;DHT22;10145;49.152;9.282;2023-11-19T03:58:02;8.80;99.90
19968;DHT22;10145;49.152;9.282;2023-11-19T04:00:27;8.90;99.90
19968;DHT22;10145;49.152;9.282;2023-11-19T04:02:53;9.00;99.90
19968;DHT22;10145;49.152;9.282;2023-11-19T04:05:18;9.00;99.90
19968;DHT22;10145;49.152;9.282;2023-11-19T04:07:44;9.00;99.90
19968;DHT22;10145;49.152;9.282;2023-11-19T04:10:09;9.00;99.90
19968;DHT22;10145;49.152;9.282;2023-11-19T04:12:35;9.10;99.90
19968;DHT22;10145;49.152;9.282;2023-11-19T04:15:01;9.20;99.90
19968;DHT22;10145;49.152;9.282;2023-11-19T04:17:27;9.30;99.90
19968;DHT22;10145;49.152;9.282;2023-11-19T04:19:52;9.30;99.90
19968;DHT22;10145;49.152;9.282;2023-11-19T04:22:18;9.30;99.90
19968;DHT22;10145;49.152;9.282;2023-11-19T04:24:43;9.40;99.90
19968;DHT22;10145;49.152;9.282;2023-11-19T04:27:10;9.40;99.90
19968;DHT22;10145;49.152;9.282;2023-11-19T04:29:36;9.40;99.90
19968;DHT22;10145;49.152;9.282;2023-11-19T04:32:02;9.50;99.90
19968;DHT22;10145;49.152;9.282;2023-11-19T04:34:27;9.50;99.90
19968;DHT22;10145;49.152;9.282;2023-11-19T04:36:53;9.60;99.90
19968;DHT22;10145;49.152;9.282;2023-11-19T04:39:19;9.60;99.90
19968;DHT22;10145;49.152;9.282;2023-11-19T04:41:49;9.60;99.90
19968;DHT22;10145;49.152;9.282;2023-11-19T04:44:18;9.70;99.90
19968;DHT22;10145;49.152;9.282;2023-11-19T04:46:44;9.80;99.90
19968;DHT22;10145;49.152;9.282;2023-11-19T04:49:10;9.80;99.90
19968;DHT22;10145;49.152;9.282;2023-11-19T04:51:43;9.90;99.90
19968;DHT22;10145;49.152;9.282;2023-11-19T04:54:09;10.00;99.90
19968;DHT22;10145;49.152;9.282;2023-11-19T04:56:36;10.00;99.90
19968;DHT22;10145;49.152;9.282;2023-11-19T04:59:03;10.10;99.90
19968;DHT22;10145;49.152;9.282;2023-11-19T05:01:28;10.20;99.90
19968;DHT22;10145;49.152;9.282;2023-11-19T05:03:55;10.20;99.90
19968;DHT22;10145;49.152;9.282;2023-11-19T05:06:22;10.30;99.90
19968;DHT22;10145;49.152;9.282;2023-11-19T05:08:48;10.30;99.90
19968;DHT22;10145;49.152;9.282;2023-11-19T05:11:13;10.30;99.90
19968;DHT22;10145;49.152;9.282;2023-11-19T05:13:43;10.40;99.90
19968;DHT22;10145;49.152;9.282;2023-11-19T05:16:10;10.30;99.90
19968;DHT22;10145;49.152;9.282;2023-11-19T05:18:35;10.30;99.90
19968;DHT22;10145;49.152;9.282;2023-11-19T05:21:01;10.40;99.90
19968;DHT22;10145;49.152;9.282;2023-11-19T05:23:26;10.50;99.90
19968;DHT22;10145;49.152;9.282;2023-11-19T05:25:52;10.50;99.90
19968;DHT22;10145;49.152;9.282;2023-11-19T05:28:17;10.60;99.90
19968;DHT22;10145;49.152;9.282;2023-11-19T05:30:43;10.70;99.90
19968;DHT22;10145;49.152;9.282;2023-11-19T05:33:10;10.70;99.90
19968;DHT22;10145;49.152;9.282;2023-11-19T05:35:36;10.70;99.90
19968;DHT22;10145;49.152;9.282;2023-11-19T05:38:01;10.70;99.90
19968;DHT22;10145;49.152;9.282;2023-11-19T05:40:28;10.70;99.90
19968;DHT22;10145;49.152;9.282;2023-11-19T05:42:53;10.70;99.90
19968;DHT22;10145;49.152;9.282;2023-11-19T05:45:19;10.80;99.90
19968;DHT22;10145;49.152;9.282;2023-11-19T05:47:44;10.80;99.90
19968;DHT22;10145;49.152;9.282;2023-11-19T05:50:10;10.90;99.90
19968;DHT22;10145;49.152;9.282;2023-11-19T05:52:35;10.90;99.90
19968;DHT22;10145;49.152;9.282;2023-11-19T05:55:01;10.90;99.90
19968;DHT22;10145;49.152;9.282;2023-11-19T05:57:30;10.90;99.90
19968;DHT22;10145;49.152;9.282;2023-11-19T05:59:55;11.00;99.90
19968;DHT22;10145;49.152;9.282;2023-11-19T06:02:21;11.10;99.90
19968;DHT22;10145;49.152;9.282;2023-11-19T06:04:47;11.00;99.90
19968;DHT22;10145;49.152;9.282;2023-11-19T06:07:13;11.10;99.90
19968;DHT22;10145;49.152;9.282;2023-11-19T06:09:40;11.10;99.90
19968;DHT22;10145;49.152;9.282;2023-11-19T06:12:06;11.10;99.90
19968;DHT22;10145;49.152;9.282;2023-11-19T06:14:32;11.10;99.90
19968;DHT22;10145;49.152;9.282;2023-11-19T06:16:58;11.10;99.90
19968;DHT22;10145;49.152;9.282;2023-11-19T06:19:23;11.10;99.90
19968;DHT22;10145;49.152;9.282;2023-11-19T06:21:50;11.20;99.90
19968;DHT22;10145;49.152;9.282;2023-11-19T06:24:16;11.20;99.90
19968;DHT22;10145;49.152;9.282;2023-11-19T06:26:42;11.20;99.90
19968;DHT22;10145;49.152;9.282;2023-11-19T06:29:07;11.20;99.90
19968;DHT22;10145;49.152;9.282;2023-11-19T06:31:33;11.30;99.90
19968;DHT22;10145;49.152;9.282;2023-11-19T06:33:58;11.30;99.90
19968;DHT22;10145;49.152;9.282;2023-11-19T06:36:24;11.40;99.90
19968;DHT22;10145;49.152;9.282;2023-11-19T06:38:50;11.40;99.90
19968;DHT22;10145;49.152;9.282;2023-11-19T06:41:15;11.40;99.90
19968;DHT22;10145;49.152;9.282;2023-11-19T06:43:41;11.40;99.90
19968;DHT22;10145;49.152;9.282;2023-11-19T06:46:17;11.40;99.90
19968;DHT22;10145;49.152;9.282;2023-11-19T06:48:44;11.40;99.90
19968;DHT22;10145;49.152;9.282;2023-11-19T06:51:10;11.40;99.90
19968;DHT22;10145;49.152;9.282;2023-11-19T06:53:36;11.40;99.90
19968;DHT22;10145;49.152;9.282;2023-11-19T06:56:02;11.50;99.90
19968;DHT22;10145;49.152;9.282;2023-11-19T06:58:40;11.50;99.90
19968;DHT22;10145;49.152;9.282;2023-11-19T07:01:06;11.60;99.90
19968;DHT22;10145;49.152;9.282;2023-11-19T07:03:35;11.60;99.90
19968;DHT22;10145;49.152;9.282;2023-11-19T07:06:00;11.70;99.90
19968;DHT22;10145;49.152;9.282;2023-11-19T07:08:26;11.60;99.90
19968;DHT22;10145;49.152;9.282;2023-11-19T07:10:52;11.60;99.90
19968;DHT22;10145;49.152;9.282;2023-11-19T07:13:17;11.70;99.90
19968;DHT22;10145;49.152;9.282;2023-11-19T07:15:44;11.70;99.90
19968;DHT22;10145;49.152;9.282;2023-11-19T07:18:10;11.70;99.90
19968;DHT22;10145;49.152;9.282;2023-11-19T07:20:37;11.80;99.90
19968;DHT22;10145;49.152;9.282;2023-11-19T07:23:03;11.50;99.90
19968;DHT22;10145;49.152;9.282;2023-11-19T07:25:29;11.70;99.90
19968;DHT22;10145;49.152;9.282;2023-11-19T07:27:54;11.80;99.90
19968;DHT22;10145;49.152;9.282;2023-11-19T07:30:20;11.80;99.90
19968;DHT22;10145;49.152;9.282;2023-11-19T07:32:46;11.80;99.90
19968;DHT22;10145;49.152;9.282;2023-11-19T07:35:11;11.80;99.90
19968;DHT22;10145;49.152;9.282;2023-11-19T07:37:37;12.00;99.90
19968;DHT22;10145;49.152;9.282;2023-11-19T07:40:03;12.00;99.90
19968;DHT22;10145;49.152;9.282;2023-11-19T07:42:29;12.00;99.90
19968;DHT22;10145;49.152;9.282;2023-11-19T07:44:54;12.00;99.90
19968;DHT22;10145;49.152;9.282;2023-11-19T07:47:21;12.00;99.90
19968;DHT22;10145;49.152;9.282;2023-11-19T07:49:49;12.10;99.90
19968;DHT22;10145;49.152;9.282;2023-11-19T07:52:15;12.10;99.90
19968;DHT22;10145;49.152;9.282;2023-11-19T07:54:41;12.10;99.90
19968;DHT22;10145;49.152;9.282;2023-11-19T07:57:06;12.10;99.90
19968;DHT22;10145;49.152;9.282;2023-11-19T07:59:32;12.10;99.90
19968;DHT22;10145;49.152;9.282;2023-11-19T08:01:58;12.20;99.90
19968;DHT22;10145;49.152;9.282;2023-11-19T08:04:23;12.10;99.90
19968;DHT22;10145;49.152;9.282;2023-11-19T08:06:49;12.10;99.90
19968;DHT22;10145;49.152;9.282;2023-11-19T08:09:15;12.00;99.90
19968;DHT22;10145;49.152;9.282;2023-11-19T08:11:43;12.00;99.90
19968;DHT22;10145;49.152;9.282;2023-11-19T08:14:09;11.90;99.90
19968;DHT22;10145;49.152;9.282;2023-11-19T08:16:35;11.90;99.90
19968;DHT22;10145;49.152;9.282;2023-11-19T08:19:03;11.90;99.90
19968;DHT22;10145;49.152;9.282;2023-11-19T08:21:28;11.90;99.90
19968;DHT22;10145;49.152;9.282;2023-11-19T08:23:54;11.90;99.90
19968;DHT22;10145;49.152;9.282;2023-11-19T08:26:20;11.90;99.90
19968;DHT22;10145;49.152;9.282;2023-11-19T08:28:45;12.00;99.90
19968;DHT22;10145;49.152;9.282;2023-11-19T08:31:11;12.20;99.90
19968;DHT22;10145;49.152;9.282;2023-11-19T08:33:37;12.10;99.90
19968;DHT22;10145;49.152;9.282;2023-11-19T08:36:03;12.30;99.90
19968;DHT22;10145;49.152;9.282;2023-11-19T08:38:29;12.20;99.90
19968;DHT22;10145;49.152;9.282;2023-11-19T08:40:55;12.20;99.90
19968;DHT22;10145;49.152;9.282;2023-11-19T08:43:25;12.30;99.90
19968;DHT22;10145;49.152;9.282;2023-11-19T08:45:51;12.30;99.90
19968;DHT22;10145;49.152;9.282;2023-11-19T08:48:16;12.40;99.90
19968;DHT22;10145;49.152;9.282;2023-11-19T08:50:42;12.50;99.90
19968;DHT22;10145;49.152;9.282;2023-11-19T08:53:08;12.50;99.90
19968;DHT22;10145;49.152;9.282;2023-11-19T08:55:33;12.50;99.90
19968;DHT22;10145;49.152;9.282;2023-11-19T08:57:59;12.50;99.90
19968;DHT22;10145;49.152;9.282;2023-11-19T09:00:24;12.60;99.90
19968;DHT22;10145;49.152;9.282;2023-11-19T09:02:50;12.60;99.90
19968;DHT22;10145;49.152;9.282;2023-11-19T09:05:16;12.70;99.90
19968;DHT22;10145;49.152;9.282;2023-11-19T09:07:41;12.70;99.90
19968;DHT22;10145;49.152;9.282;2023-11-19T09:10:07;12.80;99.90
19968;DHT22;10145;49.152;9.282;2023-11-19T09:12:34;12.60;99.90
19968;DHT22;10145;49.152;9.282;2023-11-19T09:15:00;12.60;99.90
19968;DHT22;10145;49.152;9.282;2023-11-19T09:17:26;12.50;99.90
19968;DHT22;10145;49.152;9.282;2023-11-19T09:19:51;12.60;99.90
19968;DHT22;10145;49.152;9.282;2023-11-19T09:22:17;12.70;99.90
19968;DHT22;10145;49.152;9.282;2023-11-19T09:24:42;12.70;99.90
19968;DHT22;10145;49.152;9.282;2023-11-19T09:27:10;12.70;99.90
19968;DHT22;10145;49.152;9.282;2023-11-19T09:29:36;12.70;99.90
19968;DHT22;10145;49.152;9.282;2023-11-19T09:32:01;12.60;99.90
19968;DHT22;10145;49.152;9.282;2023-11-19T09:34:27;12.70;99.90
19968;DHT22;10145;49.152;9.282;2023-11-19T09:36:53;12.70;99.90
19968;DHT22;10145;49.152;9.282;2023-11-19T09:39:19;12.70;99.90
19968;DHT22;10145;49.152;9.282;2023-11-19T09:41:46;12.70;99.90
19968;DHT22;10145;49.152;9.282;2023-11-19T09:44:12;12.80;99.90
19968;DHT22;10145;49.152;9.282;2023-11-19T09:46:40;12.90;99.90
19968;DHT22;10145;49.152;9.282;2023-11-19T09:49:08;12.90;99.90
19968;DHT22;10145;49.152;9.282;2023-11-19T09:51:35;13.00;99.90
19968;DHT22;10145;49.152;9.282;2023-11-19T09:54:01;12.90;99.90
19968;DHT22;10145;49.152;9.282;2023-11-19T09:56:29;13.00;99.90
19968;DHT22;10145;49.152;9.282;2023-11-19T09:58:55;13.20;99.90
19968;DHT22;10145;49.152;9.282;2023-11-19T10:01:21;13.00;99.90
19968;DHT22;10145;49.152;9.282;2023-11-19T10:03:47;13.00;99.90
19968;DHT22;10145;49.152;9.282;2023-11-19T10:06:14;13.00;99.90
19968;DHT22;10145;49.152;9.282;2023-11-19T10:08:42;13.10;99.90
19968;DHT22;10145;49.152;9.282;2023-11-19T10:11:09;13.20;99.90
19968;DHT22;10145;49.152;9.282;2023-11-19T10:13:37;13.10;99.90
19968;DHT22;10145;49.152;9.282;2023-11-19T10:16:12;13.30;99.90
19968;DHT22;10145;49.152;9.282;2023-11-19T10:18:46;13.30;99.90
19968;DHT22;10145;49.152;9.282;2023-11-19T10:21:13;13.30;99.90
19968;DHT22;10145;49.152;9.282;2023-11-19T10:23:53;13.40;99.90
19968;DHT22;10145;49.152;9.282;2023-11-19T10:26:20;13.50;99.90
19968;DHT22;10145;49.152;9.282;2023-11-19T10:28:46;13.60;99.90
19968;DHT22;10145;49.152;9.282;2023-11-19T10:31:16;13.70;99.90
19968;DHT22;10145;49.152;9.282;2023-11-19T10:33:42;13.80;99.90
19968;DHT22;10145;49.152;9.282;2023-11-19T10:36:11;13.90;99.90
19968;DHT22;10145;49.152;9.282;2023-11-19T10:38:38;14.10;99.90
19968;DHT22;10145;49.152;9.282;2023-11-19T10:41:04;14.00;99.90
19968;DHT22;10145;49.152;9.282;2023-11-19T10:43:30;14.10;99.90
19968;DHT22;10145;49.152;9.282;2023-11-19T10:46:09;14.10;99.90
19968;DHT22;10145;49.152;9.282;2023-11-19T10:48:36;14.10;99.90
19968;DHT22;10145;49.152;9.282;2023-11-19T10:51:05;14.00;99.90
19968;DHT22;10145;49.152;9.282;2023-11-19T10:53:35;14.10;99.90
19968;DHT22;10145;49.152;9.282;2023-11-19T10:56:02;14.00;99.90
19968;DHT22;10145;49.152;9.282;2023-11-19T10:58:32;13.90;99.90
19968;DHT22;10145;49.152;9.282;2023-11-19T11:01:01;13.80;99.90
19968;DHT22;10145;49.152;9.282;2023-11-19T11:03:31;13.70;99.90
19968;DHT22;10145;49.152;9.282;2023-11-19T11:06:03;13.80;99.90
19968;DHT22;10145;49.152;9.282;2023-11-19T11:08:30;13.80;99.90
19968;DHT22;10145;49.152;9.282;2023-11-19T11:10:56;13.90;99.90
19968;DHT22;10145;49.152;9.282;2023-11-19T11:13:24;13.90;99.90
19968;DHT22;10145;49.152;9.282;2023-11-19T11:15:50;13.90;99.90
19968;DHT22;10145;49.152;9.282;2023-11-19T11:18:16;13.90;99.90
19968;DHT22;10145;49.152;9.282;2023-11-19T11:20:45;14.00;99.90
19968;DHT22;10145;49.152;9.282;2023-11-19T11:31:29;14.00;99.90
19968;DHT22;10145;49.152;9.282;2023-11-19T11:39:40;14.10;99.90
19968;DHT22;10145;49.152;9.282;2023-11-19T11:45:11;14.30;99.90
19968;DHT22;10145;49.152;9.282;2023-11-19T11:50:15;14.20;99.90
19968;DHT22;10145;49.152;9.282;2023-11-19T11:55:52;14.90;99.90
19968;DHT22;10145;49.152;9.282;2023-11-19T11:58:30;14.30;99.90
19968;DHT22;10145;49.152;9.282;2023-11-19T12:00:58;14.40;99.90
19968;DHT22;10145;49.152;9.282;2023-11-19T12:03:27;14.40;99.90
19968;DHT22;10145;49.152;9.282;2023-11-19T12:05:53;14.40;99.90
19968;DHT22;10145;49.152;9.282;2023-11-19T12:08:24;14.40;99.90
19968;DHT22;10145;49.152;9.282;2023-11-19T12:10:51;14.50;99.90
19968;DHT22;10145;49.152;9.282;2023-11-19T12:13:23;14.50;99.90
19968;DHT22;10145;49.152;9.282;2023-11-19T12:18:24;14.60;99.90
19968;DHT22;10145;49.152;9.282;2023-11-19T12:20:51;14.50;99.90
19968;DHT22;10145;49.152;9.282;2023-11-19T12:23:17;14.50;99.90
19968;DHT22;10145;49.152;9.282;2023-11-19T12:25:43;14.50;99.90
19968;DHT22;10145;49.152;9.282;2023-11-19T12:28:14;14.60;99.90
19968;DHT22;10145;49.152;9.282;2023-11-19T12:30:40;14.50;99.90
19968;DHT22;10145;49.152;9.282;2023-11-19T12:33:09;14.50;99.90
19968;DHT22;10145;49.152;9.282;2023-11-19T12:35:39;14.50;99.90
19968;DHT22;10145;49.152;9.282;2023-11-19T12:38:05;14.60;99.90
19968;DHT22;10145;49.152;9.282;2023-11-19T12:40:31;14.60;99.90
19968;DHT22;10145;49.152;9.282;2023-11-19T12:42:57;14.60;99.90
19968;DHT22;10145;49.152;9.282;2023-11-19T12:45:23;14.60;99.90
19968;DHT22;10145;49.152;9.282;2023-11-19T12:47:49;14.60;99.90
19968;DHT22;10145;49.152;9.282;2023-11-19T12:50:17;14.60;99.90
19968;DHT22;10145;49.152;9.282;2023-11-19T12:52:55;14.50;99.90
19968;DHT22;10145;49.152;9.282;2023-11-19T12:55:26;14.60;99.90
19968;DHT22;10145;49.152;9.282;2023-11-19T12:57:52;14.40;99.90
19968;DHT22;10145;49.152;9.282;2023-11-19T13:00:21;14.30;99.90
19968;DHT22;10145;49.152;9.282;2023-11-19T13:02:51;14.30;99.90
19968;DHT22;10145;49.152;9.282;2023-11-19T13:05:31;14.10;99.90
19968;DHT22;10145;49.152;9.282;2023-11-19T13:08:08;14.00;99.90
19968;DHT22;10145;49.152;9.282;2023-11-19T13:10:54;14.00;99.90
19968;DHT22;10145;49.152;9.282;2023-11-19T13:13:19;14.00;99.90
19968;DHT22;10145;49.152;9.282;2023-11-19T13:15:45;14.10;99.90
19968;DHT22;10145;49.152;9.282;2023-11-19T13:18:11;14.10;99.90
19968;DHT22;10145;49.152;9.282;2023-11-19T13:20:38;14.20;99.90
19968;DHT22;10145;49.152;9.282;2023-11-19T13:23:05;14.10;99.90
19968;DHT22;10145;49.152;9.282;2023-11-19T13:25:32;14.20;99.90
19968;DHT22;10145;49.152;9.282;2023-11-19T13:27:58;14.20;99.90
19968;DHT22;10145;49.152;9.282;2023-11-19T13:30:25;14.40;99.90
19968;DHT22;10145;49.152;9.282;2023-11-19T13:32:51;14.40;99.90
19968;DHT22;10145;49.152;9.282;2023-11-19T13:35:18;14.40;99.90
19968;DHT22;10145;49.152;9.282;2023-11-19T13:37:44;14.40;99.90
19968;DHT22;10145;49.152;9.282;2023-11-19T13:40:10;14.40;99.90
19968;DHT22;10145;49.152;9.282;2023-11-19T13:42:41;14.40;99.90
19968;DHT22;10145;49.152;9.282;2023-11-19T13:45:16;14.40;99.90
19968;DHT22;10145;49.152;9.282;2023-11-19T13:47:44;14.30;99.90
19968;DHT22;10145;49.152;9.282;2023-11-19T13:50:14;14.30;99.90
19968;DHT22;10145;49.152;9.282;2023-11-19T13:52:43;14.50;99.90
19968;DHT22;10145;49.152;9.282;2023-11-19T13:55:10;14.40;99.90
19968;DHT22;10145;49.152;9.282;2023-11-19T13:57:36;14.40;99.90
19968;DHT22;10145;49.152;9.282;2023-11-19T14:00:03;14.20;99.90
19968;DHT22;10145;49.152;9.282;2023-11-19T14:02:33;14.20;99.90
19968;DHT22;10145;49.152;9.282;2023-11-19T14:04:59;14.30;99.90
19968;DHT22;10145;49.152;9.282;2023-11-19T14:07:25;14.30;99.90
19968;DHT22;10145;49.152;9.282;2023-11-19T14:09:51;14.30;99.90
19968;DHT22;10145;49.152;9.282;2023-11-19T14:12:16;14.30;99.90
19968;DHT22;10145;49.152;9.282;2023-11-19T14:14:43;14.40;99.90
19968;DHT22;10145;49.152;9.282;2023-11-19T14:17:09;14.50;99.90
19968;DHT22;10145;49.152;9.282;2023-11-19T14:19:36;14.40;99.90
19968;DHT22;10145;49.152;9.282;2023-11-19T14:22:02;14.30;99.90
19968;DHT22;10145;49.152;9.282;2023-11-19T14:24:28;14.40;99.90
19968;DHT22;10145;49.152;9.282;2023-11-19T14:26:53;14.50;99.90
19968;DHT22;10145;49.152;9.282;2023-11-19T14:29:19;14.40;99.90
19968;DHT22;10145;49.152;9.282;2023-11-19T14:31:44;14.50;99.90
19968;DHT22;10145;49.152;9.282;2023-11-19T14:34:10;14.80;99.90
19968;DHT22;10145;49.152;9.282;2023-11-19T14:36:35;14.90;99.90
19968;DHT22;10145;49.152;9.282;2023-11-19T14:39:01;15.00;99.90
19968;DHT22;10145;49.152;9.282;2023-11-19T14:41:27;15.10;99.90
19968;DHT22;10145;49.152;9.282;2023-11-19T14:43:52;15.10;99.90
19968;DHT22;10145;49.152;9.282;2023-11-19T14:46:18;15.10;99.90
19968;DHT22;10145;49.152;9.282;2023-11-19T14:48:44;14.90;99.90
19968;DHT22;10145;49.152;9.282;2023-11-19T14:51:09;14.80;99.90
19968;DHT22;10145;49.152;9.282;2023-11-19T14:53:35;14.70;99.90
19968;DHT22;10145;49.152;9.282;2023-11-19T14:56:01;14.50;99.90
19968;DHT22;10145;49.152;9.282;2023-11-19T14:58:27;14.40;99.90
19968;DHT22;10145;49.152;9.282;2023-11-19T15:00:53;14.30;99.90
19968;DHT22;10145;49.152;9.282;2023-11-19T15:03:19;14.10;99.90
19968;DHT22;10145;49.152;9.282;2023-11-19T15:05:48;14.10;99.90
19968;DHT22;10145;49.152;9.282;2023-11-19T15:08:13;13.90;99.90
19968;DHT22;10145;49.152;9.282;2023-11-19T15:10:42;13.90;99.90
19968;DHT22;10145;49.152;9.282;2023-11-19T15:13:07;13.80;99.90
19968;DHT22;10145;49.152;9.282;2023-11-19T15:15:34;13.70;99.90
19968;DHT22;10145;49.152;9.282;2023-11-19T15:18:00;13.60;99.90
19968;DHT22;10145;49.152;9.282;2023-11-19T15:20:26;13.60;99.90
19968;DHT22;10145;49.152;9.282;2023-11-19T15:22:55;13.70;99.90
19968;DHT22;10145;49.152;9.282;2023-11-19T15:25:21;13.60;99.90
19968;DHT22;10145;49.152;9.282;2023-11-19T15:27:48;13.60;99.90
19968;DHT22;10145;49.152;9.282;2023-11-19T15:30:14;13.50;99.90
19968;DHT22;10145;49.152;9.282;2023-11-19T15:32:41;13.50;99.90
19968;DHT22;10145;49.152;9.282;2023-11-19T15:35:08;13.50;99.90
19968;DHT22;10145;49.152;9.282;2023-11-19T15:37:34;13.40;99.90
19968;DHT22;10145;49.152;9.282;2023-11-19T15:40:00;13.30;99.90
19968;DHT22;10145;49.152;9.282;2023-11-19T15:42:25;13.30;99.90
19968;DHT22;10145;49.152;9.282;2023-11-19T15:44:51;13.30;99.90
19968;DHT22;10145;49.152;9.282;2023-11-19T15:47:17;13.50;99.90
19968;DHT22;10145;49.152;9.282;2023-11-19T15:49:42;13.30;99.90
19968;DHT22;10145;49.152;9.282;2023-11-19T15:52:08;13.20;99.90
19968;DHT22;10145;49.152;9.282;2023-11-19T15:54:34;13.30;99.90
19968;DHT22;10145;49.152;9.282;2023-11-19T15:57:00;13.30;99.90
19968;DHT22;10145;49.152;9.282;2023-11-19T15:59:26;13.30;99.90